sensor_id;sensor_type;location;lat;lon;timestamp;temperature;humidity
3356;DHT22;1691;52.486;13.374;2022-09-24T00:01:36;12.30;80.80
3356;DHT22;1691;52.486;13.374;2022-09-24T00:04:09;12.20;81.00
3356;DHT22;1691;52.486;13.374;2022-09-24T00:06:43;12.20;81.00
3356;DHT22;1691;52.486;13.374;2022-09-24T00:09:14;12.20;81.10
3356;DHT22;1691;52.486;13.374;2022-09-24T00:11:42;12.20;81.30
3356;DHT22;1691;52.486;13.374;2022-09-24T00:14:11;12.10;81.30
3356;DHT22;1691;52.486;13.374;2022-09-24T00:16:39;12.10;81.50
3356;DHT22;1691;52.486;13.374;2022-09-24T00:19:07;12.10;81.70
3356;DHT22;1691;52.486;13.374;2022-09-24T00:21:35;12.00;81.90
3356;DHT22;1691;52.486;13.374;2022-09-24T00:24:12;12.00;82.10
3356;DHT22;1691;52.486;13.374;2022-09-24T00:27:00;12.00;82.40
3356;DHT22;1691;52.486;13.374;2022-09-24T00:29:28;12.00;82.60
3356;DHT22;1691;52.486;13.374;2022-09-24T00:32:00;12.00;82.60
3356;DHT22;1691;52.486;13.374;2022-09-24T00:34:28;12.00;82.80
3356;DHT22;1691;52.486;13.374;2022-09-24T00:36:55;11.90;82.80
3356;DHT22;1691;52.486;13.374;2022-09-24T00:39:22;11.90;83.00
3356;DHT22;1691;52.486;13.374;2022-09-24T00:41:49;11.90;83.00
3356;DHT22;1691;52.486;13.374;2022-09-24T00:52:34;11.80;83.40
3356;DHT22;1691;52.486;13.374;2022-09-24T00:55:03;11.80;83.60
3356;DHT22;1691;52.486;13.374;2022-09-24T00:57:30;11.80;83.80
3356;DHT22;1691;52.486;13.374;2022-09-24T00:59:58;11.80;83.90
3356;DHT22;1691;52.486;13.374;2022-09-24T01:02:25;11.80;83.90
3356;DHT22;1691;52.486;13.374;2022-09-24T01:04:52;11.80;84.10
3356;DHT22;1691;52.486;13.374;2022-09-24T01:07:22;11.80;84.30
3356;DHT22;1691;52.486;13.374;2022-09-24T01:09:49;11.70;84.30
3356;DHT22;1691;52.486;13.374;2022-09-24T01:12:28;11.70;84.50
3356;DHT22;1691;52.486;13.374;2022-09-24T01:18:15;11.70;84.90
3356;DHT22;1691;52.486;13.374;2022-09-24T01:24:14;11.70;84.90
3356;DHT22;1691;52.486;13.374;2022-09-24T01:26:53;11.70;85.10
3356;DHT22;1691;52.486;13.374;2022-09-24T01:29:58;11.70;85.10
3356;DHT22;1691;52.486;13.374;2022-09-24T01:32:52;11.70;85.10
3356;DHT22;1691;52.486;13.374;2022-09-24T01:37:57;11.80;85.10
3356;DHT22;1691;52.486;13.374;2022-09-24T01:40:28;11.80;85.20
3356;DHT22;1691;52.486;13.374;2022-09-24T01:42:57;11.80;85.40
3356;DHT22;1691;52.486;13.374;2022-09-24T01:45:26;11.80;85.40
3356;DHT22;1691;52.486;13.374;2022-09-24T01:48:00;11.80;85.60
3356;DHT22;1691;52.486;13.374;2022-09-24T01:50:32;11.80;85.60
3356;DHT22;1691;52.486;13.374;2022-09-24T01:53:23;11.80;85.60
3356;DHT22;1691;52.486;13.374;2022-09-24T01:55:59;11.80;85.80
3356;DHT22;1691;52.486;13.374;2022-09-24T01:58:45;11.80;85.80
3356;DHT22;1691;52.486;13.374;2022-09-24T02:01:20;11.80;85.80
3356;DHT22;1691;52.486;13.374;2022-09-24T02:03:55;11.80;85.80
3356;DHT22;1691;52.486;13.374;2022-09-24T02:06:32;11.90;85.80
3356;DHT22;1691;52.486;13.374;2022-09-24T02:09:02;11.90;85.80
3356;DHT22;1691;52.486;13.374;2022-09-24T02:11:30;11.90;85.80
3356;DHT22;1691;52.486;13.374;2022-09-24T02:16:37;11.90;86.00
3356;DHT22;1691;52.486;13.374;2022-09-24T02:19:10;11.90;86.00
3356;DHT22;1691;52.486;13.374;2022-09-24T02:21:39;11.90;86.00
3356;DHT22;1691;52.486;13.374;2022-09-24T02:24:13;11.90;86.00
3356;DHT22;1691;52.486;13.374;2022-09-24T02:26:42;11.90;86.00
3356;DHT22;1691;52.486;13.374;2022-09-24T02:29:09;12.00;86.00
3356;DHT22;1691;52.486;13.374;2022-09-24T02:31:40;12.00;86.00
3356;DHT22;1691;52.486;13.374;2022-09-24T02:34:13;12.00;86.20
3356;DHT22;1691;52.486;13.374;2022-09-24T02:36:54;11.90;86.20
3356;DHT22;1691;52.486;13.374;2022-09-24T02:39:25;11.90;86.20
3356;DHT22;1691;52.486;13.374;2022-09-24T02:41:53;12.00;86.20
3356;DHT22;1691;52.486;13.374;2022-09-24T02:44:20;12.00;86.40
3356;DHT22;1691;52.486;13.374;2022-09-24T02:46:47;12.00;86.40
3356;DHT22;1691;52.486;13.374;2022-09-24T02:49:16;12.00;86.40
3356;DHT22;1691;52.486;13.374;2022-09-24T02:51:43;12.00;86.40
3356;DHT22;1691;52.486;13.374;2022-09-24T02:54:11;12.00;86.40
3356;DHT22;1691;52.486;13.374;2022-09-24T02:56:38;12.00;86.40
3356;DHT22;1691;52.486;13.374;2022-09-24T02:59:05;12.00;86.40
3356;DHT22;1691;52.486;13.374;2022-09-24T03:01:33;12.00;86.40
3356;DHT22;1691;52.486;13.374;2022-09-24T03:04:01;12.10;86.40
3356;DHT22;1691;52.486;13.374;2022-09-24T03:06:28;12.10;86.40
3356;DHT22;1691;52.486;13.374;2022-09-24T03:08:56;12.10;86.40
3356;DHT22;1691;52.486;13.374;2022-09-24T03:11:24;12.10;86.40
3356;DHT22;1691;52.486;13.374;2022-09-24T03:13:51;12.00;86.50
3356;DHT22;1691;52.486;13.374;2022-09-24T03:16:18;12.00;86.70
3356;DHT22;1691;52.486;13.374;2022-09-24T03:18:46;12.10;86.70
3356;DHT22;1691;52.486;13.374;2022-09-24T03:21:15;12.00;86.70
3356;DHT22;1691;52.486;13.374;2022-09-24T03:23:43;12.10;86.70
3356;DHT22;1691;52.486;13.374;2022-09-24T03:26:11;12.10;86.90
3356;DHT22;1691;52.486;13.374;2022-09-24T03:28:39;12.00;86.90
3356;DHT22;1691;52.486;13.374;2022-09-24T03:31:07;12.00;86.90
3356;DHT22;1691;52.486;13.374;2022-09-24T03:36:08;12.00;87.30
3356;DHT22;1691;52.486;13.374;2022-09-24T03:38:38;12.00;87.30
3356;DHT22;1691;52.486;13.374;2022-09-24T03:41:06;11.90;87.50
3356;DHT22;1691;52.486;13.374;2022-09-24T03:43:34;11.90;87.50
3356;DHT22;1691;52.486;13.374;2022-09-24T03:46:03;11.90;87.70
3356;DHT22;1691;52.486;13.374;2022-09-24T03:48:33;11.90;87.90
3356;DHT22;1691;52.486;13.374;2022-09-24T03:51:10;11.80;88.00
3356;DHT22;1691;52.486;13.374;2022-09-24T03:53:38;11.80;88.20
3356;DHT22;1691;52.486;13.374;2022-09-24T03:56:06;11.80;88.40
3356;DHT22;1691;52.486;13.374;2022-09-24T03:58:35;11.80;88.40
3356;DHT22;1691;52.486;13.374;2022-09-24T04:01:07;11.80;88.40
3356;DHT22;1691;52.486;13.374;2022-09-24T04:03:35;11.80;88.40
3356;DHT22;1691;52.486;13.374;2022-09-24T04:06:03;11.80;88.60
3356;DHT22;1691;52.486;13.374;2022-09-24T04:08:31;11.80;88.60
3356;DHT22;1691;52.486;13.374;2022-09-24T04:10:58;11.70;88.60
3356;DHT22;1691;52.486;13.374;2022-09-24T04:13:25;11.80;88.80
3356;DHT22;1691;52.486;13.374;2022-09-24T04:15:52;11.70;89.00
3356;DHT22;1691;52.486;13.374;2022-09-24T04:18:20;11.80;89.00
3356;DHT22;1691;52.486;13.374;2022-09-24T04:20:48;11.80;89.00
3356;DHT22;1691;52.486;13.374;2022-09-24T04:23:15;11.80;89.00
3356;DHT22;1691;52.486;13.374;2022-09-24T04:25:42;11.80;89.20
3356;DHT22;1691;52.486;13.374;2022-09-24T04:28:09;11.80;89.20
3356;DHT22;1691;52.486;13.374;2022-09-24T04:30:37;11.80;89.30
3356;DHT22;1691;52.486;13.374;2022-09-24T04:33:06;11.80;89.30
3356;DHT22;1691;52.486;13.374;2022-09-24T04:35:34;11.80;89.50
3356;DHT22;1691;52.486;13.374;2022-09-24T04:38:03;11.80;89.50
3356;DHT22;1691;52.486;13.374;2022-09-24T04:40:31;11.80;89.50
3356;DHT22;1691;52.486;13.374;2022-09-24T04:42:58;11.80;89.70
3356;DHT22;1691;52.486;13.374;2022-09-24T04:45:25;11.80;89.70
3356;DHT22;1691;52.486;13.374;2022-09-24T04:47:52;11.80;89.70
3356;DHT22;1691;52.486;13.374;2022-09-24T04:50:27;11.80;89.70
3356;DHT22;1691;52.486;13.374;2022-09-24T04:52:56;11.80;89.70
3356;DHT22;1691;52.486;13.374;2022-09-24T04:55:23;11.80;89.70
3356;DHT22;1691;52.486;13.374;2022-09-24T04:57:50;11.80;89.70
3356;DHT22;1691;52.486;13.374;2022-09-24T05:00:19;11.70;89.70
3356;DHT22;1691;52.486;13.374;2022-09-24T05:02:47;11.80;89.70
3356;DHT22;1691;52.486;13.374;2022-09-24T05:05:21;11.70;89.70
3356;DHT22;1691;52.486;13.374;2022-09-24T05:07:48;11.70;89.70
3356;DHT22;1691;52.486;13.374;2022-09-24T05:10:16;11.70;89.90
3356;DHT22;1691;52.486;13.374;2022-09-24T05:12:44;11.70;90.10
3356;DHT22;1691;52.486;13.374;2022-09-24T05:15:11;11.80;90.10
3356;DHT22;1691;52.486;13.374;2022-09-24T05:17:39;11.80;90.10
3356;DHT22;1691;52.486;13.374;2022-09-24T05:20:09;11.80;89.90
3356;DHT22;1691;52.486;13.374;2022-09-24T05:22:43;11.90;89.70
3356;DHT22;1691;52.486;13.374;2022-09-24T05:25:12;11.90;89.70
3356;DHT22;1691;52.486;13.374;2022-09-24T05:27:52;11.90;89.50
3356;DHT22;1691;52.486;13.374;2022-09-24T05:30:21;11.90;89.90
3356;DHT22;1691;52.486;13.374;2022-09-24T05:32:49;11.90;89.90
3356;DHT22;1691;52.486;13.374;2022-09-24T05:35:21;11.90;89.70
3356;DHT22;1691;52.486;13.374;2022-09-24T05:37:49;11.90;89.70
3356;DHT22;1691;52.486;13.374;2022-09-24T05:40:19;11.90;89.90
3356;DHT22;1691;52.486;13.374;2022-09-24T05:43:05;11.90;90.10
3356;DHT22;1691;52.486;13.374;2022-09-24T05:45:32;11.90;90.10
3356;DHT22;1691;52.486;13.374;2022-09-24T05:47:59;12.00;90.20
3356;DHT22;1691;52.486;13.374;2022-09-24T05:50:26;12.00;90.20
3356;DHT22;1691;52.486;13.374;2022-09-24T05:52:53;12.10;90.20
3356;DHT22;1691;52.486;13.374;2022-09-24T05:55:20;12.10;90.20
3356;DHT22;1691;52.486;13.374;2022-09-24T05:57:47;12.20;90.10
3356;DHT22;1691;52.486;13.374;2022-09-24T06:00:14;12.20;90.10
3356;DHT22;1691;52.486;13.374;2022-09-24T06:02:41;12.30;90.10
3356;DHT22;1691;52.486;13.374;2022-09-24T06:05:09;12.30;89.90
3356;DHT22;1691;52.486;13.374;2022-09-24T06:07:37;12.30;89.70
3356;DHT22;1691;52.486;13.374;2022-09-24T06:10:04;12.40;89.30
3356;DHT22;1691;52.486;13.374;2022-09-24T06:12:33;12.40;89.20
3356;DHT22;1691;52.486;13.374;2022-09-24T06:15:01;12.40;89.20
3356;DHT22;1691;52.486;13.374;2022-09-24T06:17:28;12.50;89.00
3356;DHT22;1691;52.486;13.374;2022-09-24T06:19:56;12.50;89.00
3356;DHT22;1691;52.486;13.374;2022-09-24T06:22:23;12.60;88.60
3356;DHT22;1691;52.486;13.374;2022-09-24T06:24:54;12.60;88.40
3356;DHT22;1691;52.486;13.374;2022-09-24T06:27:21;12.70;88.20
3356;DHT22;1691;52.486;13.374;2022-09-24T06:29:48;12.70;88.00
3356;DHT22;1691;52.486;13.374;2022-09-24T06:32:15;12.80;87.90
3356;DHT22;1691;52.486;13.374;2022-09-24T06:34:44;12.90;87.50
3356;DHT22;1691;52.486;13.374;2022-09-24T06:37:11;12.90;87.30
3356;DHT22;1691;52.486;13.374;2022-09-24T06:39:38;13.00;87.30
3356;DHT22;1691;52.486;13.374;2022-09-24T06:42:05;13.20;87.10
3356;DHT22;1691;52.486;13.374;2022-09-24T06:44:33;13.30;86.50
3356;DHT22;1691;52.486;13.374;2022-09-24T06:47:00;13.50;86.50
3356;DHT22;1691;52.486;13.374;2022-09-24T06:49:27;13.60;86.00
3356;DHT22;1691;52.486;13.374;2022-09-24T06:52:00;13.80;85.80
3356;DHT22;1691;52.486;13.374;2022-09-24T06:54:27;13.90;85.10
3356;DHT22;1691;52.486;13.374;2022-09-24T06:56:54;14.00;84.50
3356;DHT22;1691;52.486;13.374;2022-09-24T06:59:21;14.00;84.30
3356;DHT22;1691;52.486;13.374;2022-09-24T07:01:48;14.00;84.10
3356;DHT22;1691;52.486;13.374;2022-09-24T07:04:15;13.90;83.90
3356;DHT22;1691;52.486;13.374;2022-09-24T07:06:42;13.80;83.80
3356;DHT22;1691;52.486;13.374;2022-09-24T07:09:27;13.70;83.90
3356;DHT22;1691;52.486;13.374;2022-09-24T07:11:57;13.70;84.50
3356;DHT22;1691;52.486;13.374;2022-09-24T07:14:24;13.60;84.50
3356;DHT22;1691;52.486;13.374;2022-09-24T07:16:51;13.60;84.70
3356;DHT22;1691;52.486;13.374;2022-09-24T07:19:19;13.60;84.70
3356;DHT22;1691;52.486;13.374;2022-09-24T07:21:46;13.60;84.90
3356;DHT22;1691;52.486;13.374;2022-09-24T07:24:13;13.70;84.90
3356;DHT22;1691;52.486;13.374;2022-09-24T07:26:40;13.70;84.70
3356;DHT22;1691;52.486;13.374;2022-09-24T07:29:07;13.60;84.70
3356;DHT22;1691;52.486;13.374;2022-09-24T07:31:34;13.70;84.70
3356;DHT22;1691;52.486;13.374;2022-09-24T07:34:02;13.70;84.70
3356;DHT22;1691;52.486;13.374;2022-09-24T07:36:29;13.80;84.30
3356;DHT22;1691;52.486;13.374;2022-09-24T07:38:57;13.90;84.10
3356;DHT22;1691;52.486;13.374;2022-09-24T07:41:24;13.90;83.90
3356;DHT22;1691;52.486;13.374;2022-09-24T07:43:51;14.00;83.90
3356;DHT22;1691;52.486;13.374;2022-09-24T07:46:20;14.00;83.80
3356;DHT22;1691;52.486;13.374;2022-09-24T07:48:47;14.00;83.60
3356;DHT22;1691;52.486;13.374;2022-09-24T07:51:15;14.00;83.80
3356;DHT22;1691;52.486;13.374;2022-09-24T07:53:42;14.00;83.80
3356;DHT22;1691;52.486;13.374;2022-09-24T07:56:09;14.00;83.80
3356;DHT22;1691;52.486;13.374;2022-09-24T07:58:36;14.10;83.80
3356;DHT22;1691;52.486;13.374;2022-09-24T08:01:03;14.10;83.60
3356;DHT22;1691;52.486;13.374;2022-09-24T08:03:30;14.20;83.60
3356;DHT22;1691;52.486;13.374;2022-09-24T08:05:58;14.20;83.40
3356;DHT22;1691;52.486;13.374;2022-09-24T08:08:27;14.20;83.40
3356;DHT22;1691;52.486;13.374;2022-09-24T08:10:54;14.30;83.40
3356;DHT22;1691;52.486;13.374;2022-09-24T08:13:21;14.40;83.20
3356;DHT22;1691;52.486;13.374;2022-09-24T08:15:57;14.40;82.80
3356;DHT22;1691;52.486;13.374;2022-09-24T08:18:29;14.50;82.60
3356;DHT22;1691;52.486;13.374;2022-09-24T08:21:08;14.60;82.60
3356;DHT22;1691;52.486;13.374;2022-09-24T08:23:38;14.70;82.30
3356;DHT22;1691;52.486;13.374;2022-09-24T08:26:09;14.80;82.10
3356;DHT22;1691;52.486;13.374;2022-09-24T08:28:37;14.80;81.50
3356;DHT22;1691;52.486;13.374;2022-09-24T08:31:06;14.90;81.30
3356;DHT22;1691;52.486;13.374;2022-09-24T08:33:35;15.00;81.10
3356;DHT22;1691;52.486;13.374;2022-09-24T08:36:05;15.00;81.00
3356;DHT22;1691;52.486;13.374;2022-09-24T08:38:33;15.10;80.80
3356;DHT22;1691;52.486;13.374;2022-09-24T08:41:07;15.30;80.60
3356;DHT22;1691;52.486;13.374;2022-09-24T08:46:47;15.60;79.50
3356;DHT22;1691;52.486;13.374;2022-09-24T08:55:35;16.40;77.00
3356;DHT22;1691;52.486;13.374;2022-09-24T09:11:38;16.90;74.10
3356;DHT22;1691;52.486;13.374;2022-09-24T09:14:11;16.80;74.40
3356;DHT22;1691;52.486;13.374;2022-09-24T09:16:48;16.90;74.40
3356;DHT22;1691;52.486;13.374;2022-09-24T09:19:20;17.00;74.10
3356;DHT22;1691;52.486;13.374;2022-09-24T09:21:57;17.20;73.50
3356;DHT22;1691;52.486;13.374;2022-09-24T09:24:47;17.50;72.60
3356;DHT22;1691;52.486;13.374;2022-09-24T09:27:16;17.90;71.50
3356;DHT22;1691;52.486;13.374;2022-09-24T09:29:50;18.00;70.70
3356;DHT22;1691;52.486;13.374;2022-09-24T09:35:16;18.10;70.00
3356;DHT22;1691;52.486;13.374;2022-09-24T09:38:37;18.00;69.20
3356;DHT22;1691;52.486;13.374;2022-09-24T09:43:46;17.90;69.20
3356;DHT22;1691;52.486;13.374;2022-09-24T09:46:33;17.90;69.60
3356;DHT22;1691;52.486;13.374;2022-09-24T09:49:07;17.90;68.80
3356;DHT22;1691;52.486;13.374;2022-09-24T09:51:39;18.00;68.80
3356;DHT22;1691;52.486;13.374;2022-09-24T09:54:08;18.00;68.50
3356;DHT22;1691;52.486;13.374;2022-09-24T09:56:47;18.00;68.30
3356;DHT22;1691;52.486;13.374;2022-09-24T09:59:20;18.00;67.90
3356;DHT22;1691;52.486;13.374;2022-09-24T10:01:55;17.90;67.70
3356;DHT22;1691;52.486;13.374;2022-09-24T10:10:15;18.00;67.70
3356;DHT22;1691;52.486;13.374;2022-09-24T10:12:44;18.20;67.00
3356;DHT22;1691;52.486;13.374;2022-09-24T10:17:41;18.20;66.80
3356;DHT22;1691;52.486;13.374;2022-09-24T10:23:05;18.10;66.20
3356;DHT22;1691;52.486;13.374;2022-09-24T10:25:33;18.00;66.40
3356;DHT22;1691;52.486;13.374;2022-09-24T10:28:06;18.10;66.60
3356;DHT22;1691;52.486;13.374;2022-09-24T10:30:59;18.10;66.60
3356;DHT22;1691;52.486;13.374;2022-09-24T10:33:40;18.10;66.80
3356;DHT22;1691;52.486;13.374;2022-09-24T10:36:32;18.10;66.60
3356;DHT22;1691;52.486;13.374;2022-09-24T10:39:13;18.00;66.60
3356;DHT22;1691;52.486;13.374;2022-09-24T10:41:51;17.90;66.60
3356;DHT22;1691;52.486;13.374;2022-09-24T10:44:20;17.80;67.00
3356;DHT22;1691;52.486;13.374;2022-09-24T10:55:43;17.90;66.60
3356;DHT22;1691;52.486;13.374;2022-09-24T11:04:57;18.10;66.60
3356;DHT22;1691;52.486;13.374;2022-09-24T11:07:51;18.30;66.20
3356;DHT22;1691;52.486;13.374;2022-09-24T11:13:36;18.60;65.90
3356;DHT22;1691;52.486;13.374;2022-09-24T11:21:50;18.70;67.00
3356;DHT22;1691;52.486;13.374;2022-09-24T11:28:02;18.90;68.70
3356;DHT22;1691;52.486;13.374;2022-09-24T11:46:12;19.50;65.90
3356;DHT22;1691;52.486;13.374;2022-09-24T11:49:04;19.60;65.10
3356;DHT22;1691;52.486;13.374;2022-09-24T11:51:53;19.60;64.60
3356;DHT22;1691;52.486;13.374;2022-09-24T11:54:55;19.50;64.20
3356;DHT22;1691;52.486;13.374;2022-09-24T11:57:41;19.50;64.20
3356;DHT22;1691;52.486;13.374;2022-09-24T12:00:17;19.30;64.70
3356;DHT22;1691;52.486;13.374;2022-09-24T12:08:22;19.10;68.10
3356;DHT22;1691;52.486;13.374;2022-09-24T12:13:52;18.80;70.30
3356;DHT22;1691;52.486;13.374;2022-09-24T12:16:26;18.60;70.90
3356;DHT22;1691;52.486;13.374;2022-09-24T12:19:00;18.50;72.00
3356;DHT22;1691;52.486;13.374;2022-09-24T12:21:40;18.50;72.80
3356;DHT22;1691;52.486;13.374;2022-09-24T12:24:37;18.40;72.60
3356;DHT22;1691;52.486;13.374;2022-09-24T12:27:21;18.40;72.20
3356;DHT22;1691;52.486;13.374;2022-09-24T12:33:16;18.50;70.70
3356;DHT22;1691;52.486;13.374;2022-09-24T12:36:03;18.60;70.30
3356;DHT22;1691;52.486;13.374;2022-09-24T12:41:34;18.80;70.30
3356;DHT22;1691;52.486;13.374;2022-09-24T12:46:52;19.00;71.10
3356;DHT22;1691;52.486;13.374;2022-09-24T12:51:58;19.00;70.10
3356;DHT22;1691;52.486;13.374;2022-09-24T12:54:35;19.00;69.40
3356;DHT22;1691;52.486;13.374;2022-09-24T12:57:12;19.00;69.00
3356;DHT22;1691;52.486;13.374;2022-09-24T12:59:56;19.10;68.70
3356;DHT22;1691;52.486;13.374;2022-09-24T13:02:43;19.20;68.30
3356;DHT22;1691;52.486;13.374;2022-09-24T13:05:31;19.30;67.40
3356;DHT22;1691;52.486;13.374;2022-09-24T13:13:36;19.40;65.70
3356;DHT22;1691;52.486;13.374;2022-09-24T13:16:19;19.50;65.50
3356;DHT22;1691;52.486;13.374;2022-09-24T13:18:58;19.50;65.30
3356;DHT22;1691;52.486;13.374;2022-09-24T13:21:27;19.60;65.50
3356;DHT22;1691;52.486;13.374;2022-09-24T13:23:55;19.60;65.50
3356;DHT22;1691;52.486;13.374;2022-09-24T13:26:32;19.60;65.30
3356;DHT22;1691;52.486;13.374;2022-09-24T13:29:00;19.60;64.90
3356;DHT22;1691;52.486;13.374;2022-09-24T13:31:49;19.60;64.90
3356;DHT22;1691;52.486;13.374;2022-09-24T13:34:28;19.60;64.70
3356;DHT22;1691;52.486;13.374;2022-09-24T13:39:58;19.60;64.60
3356;DHT22;1691;52.486;13.374;2022-09-24T13:43:03;19.50;64.90
3356;DHT22;1691;52.486;13.374;2022-09-24T13:45:33;19.50;64.90
3356;DHT22;1691;52.486;13.374;2022-09-24T13:48:16;19.40;65.10
3356;DHT22;1691;52.486;13.374;2022-09-24T13:50:50;19.40;64.90
3356;DHT22;1691;52.486;13.374;2022-09-24T13:53:36;19.30;65.10
3356;DHT22;1691;52.486;13.374;2022-09-24T13:56:16;19.30;64.90
3356;DHT22;1691;52.486;13.374;2022-09-24T13:58:44;19.30;64.90
3356;DHT22;1691;52.486;13.374;2022-09-24T14:01:18;19.30;64.90
3356;DHT22;1691;52.486;13.374;2022-09-24T14:03:55;19.20;64.70
3356;DHT22;1691;52.486;13.374;2022-09-24T14:06:39;19.20;64.70
3356;DHT22;1691;52.486;13.374;2022-09-24T14:09:34;19.20;64.90
3356;DHT22;1691;52.486;13.374;2022-09-24T14:12:13;19.30;64.40
3356;DHT22;1691;52.486;13.374;2022-09-24T14:14:44;19.30;64.40
3356;DHT22;1691;52.486;13.374;2022-09-24T14:17:15;19.30;64.40
3356;DHT22;1691;52.486;13.374;2022-09-24T14:19:42;19.20;64.20
3356;DHT22;1691;52.486;13.374;2022-09-24T14:22:15;19.20;64.20
3356;DHT22;1691;52.486;13.374;2022-09-24T14:25:09;19.20;64.20
3356;DHT22;1691;52.486;13.374;2022-09-24T14:27:44;19.10;64.20
3356;DHT22;1691;52.486;13.374;2022-09-24T14:30:23;19.10;64.40
3356;DHT22;1691;52.486;13.374;2022-09-24T14:32:57;19.10;64.20
3356;DHT22;1691;52.486;13.374;2022-09-24T14:35:34;19.10;64.00
3356;DHT22;1691;52.486;13.374;2022-09-24T14:38:13;19.10;64.00
3356;DHT22;1691;52.486;13.374;2022-09-24T14:40:55;19.10;63.60
3356;DHT22;1691;52.486;13.374;2022-09-24T14:43:41;19.10;63.60
3356;DHT22;1691;52.486;13.374;2022-09-24T14:46:15;19.00;63.60
3356;DHT22;1691;52.486;13.374;2022-09-24T14:48:48;19.00;63.80
3356;DHT22;1691;52.486;13.374;2022-09-24T14:51:24;18.90;64.00
3356;DHT22;1691;52.486;13.374;2022-09-24T14:54:20;18.80;64.00
3356;DHT22;1691;52.486;13.374;2022-09-24T14:57:22;18.70;64.40
3356;DHT22;1691;52.486;13.374;2022-09-24T14:59:50;18.60;64.70
3356;DHT22;1691;52.486;13.374;2022-09-24T15:02:45;18.50;65.30
3356;DHT22;1691;52.486;13.374;2022-09-24T15:05:16;18.50;65.50
3356;DHT22;1691;52.486;13.374;2022-09-24T15:07:43;18.40;65.70
3356;DHT22;1691;52.486;13.374;2022-09-24T15:10:18;18.40;65.90
3356;DHT22;1691;52.486;13.374;2022-09-24T15:12:49;18.40;65.90
3356;DHT22;1691;52.486;13.374;2022-09-24T15:17:46;18.20;66.20
3356;DHT22;1691;52.486;13.374;2022-09-24T15:20:13;18.20;66.60
3356;DHT22;1691;52.486;13.374;2022-09-24T15:22:40;18.10;67.00
3356;DHT22;1691;52.486;13.374;2022-09-24T15:25:07;18.00;67.20
3356;DHT22;1691;52.486;13.374;2022-09-24T15:27:37;18.00;67.70
3356;DHT22;1691;52.486;13.374;2022-09-24T15:30:09;17.90;68.50
3356;DHT22;1691;52.486;13.374;2022-09-24T15:32:37;17.80;69.40
3356;DHT22;1691;52.486;13.374;2022-09-24T15:35:05;17.70;70.00
3356;DHT22;1691;52.486;13.374;2022-09-24T15:37:37;17.60;70.50
3356;DHT22;1691;52.486;13.374;2022-09-24T15:40:25;17.50;71.50
3356;DHT22;1691;52.486;13.374;2022-09-24T15:42:56;17.50;72.00
3356;DHT22;1691;52.486;13.374;2022-09-24T15:45:23;17.50;72.00
3356;DHT22;1691;52.486;13.374;2022-09-24T15:47:52;17.40;71.80
3356;DHT22;1691;52.486;13.374;2022-09-24T15:50:20;17.40;71.60
3356;DHT22;1691;52.486;13.374;2022-09-24T15:52:59;17.40;71.60
3356;DHT22;1691;52.486;13.374;2022-09-24T15:55:27;17.40;71.80
3356;DHT22;1691;52.486;13.374;2022-09-24T15:57:54;17.30;72.00
3356;DHT22;1691;52.486;13.374;2022-09-24T16:00:23;17.30;72.00
3356;DHT22;1691;52.486;13.374;2022-09-24T16:02:53;17.30;72.00
3356;DHT22;1691;52.486;13.374;2022-09-24T16:05:23;17.30;72.00
3356;DHT22;1691;52.486;13.374;2022-09-24T16:07:50;17.30;72.20
3356;DHT22;1691;52.486;13.374;2022-09-24T16:10:17;17.20;72.20
3356;DHT22;1691;52.486;13.374;2022-09-24T16:12:44;17.20;72.40
3356;DHT22;1691;52.486;13.374;2022-09-24T16:15:13;17.20;72.60
3356;DHT22;1691;52.486;13.374;2022-09-24T16:17:41;17.10;72.80
3356;DHT22;1691;52.486;13.374;2022-09-24T16:20:08;17.00;73.10
3356;DHT22;1691;52.486;13.374;2022-09-24T16:22:36;17.00;73.70
3356;DHT22;1691;52.486;13.374;2022-09-24T16:25:03;16.90;74.10
3356;DHT22;1691;52.486;13.374;2022-09-24T16:27:31;16.90;74.60
3356;DHT22;1691;52.486;13.374;2022-09-24T16:30:00;16.80;75.00
3356;DHT22;1691;52.486;13.374;2022-09-24T16:32:28;16.80;75.20
3356;DHT22;1691;52.486;13.374;2022-09-24T16:34:55;16.70;75.20
3356;DHT22;1691;52.486;13.374;2022-09-24T16:37:23;16.60;75.70
3356;DHT22;1691;52.486;13.374;2022-09-24T16:39:50;16.60;75.90
3356;DHT22;1691;52.486;13.374;2022-09-24T16:42:18;16.50;76.30
3356;DHT22;1691;52.486;13.374;2022-09-24T16:44:45;16.40;76.70
3356;DHT22;1691;52.486;13.374;2022-09-24T16:47:12;16.30;77.00
3356;DHT22;1691;52.486;13.374;2022-09-24T16:49:43;16.30;77.40
3356;DHT22;1691;52.486;13.374;2022-09-24T16:52:10;16.20;77.80
3356;DHT22;1691;52.486;13.374;2022-09-24T16:54:37;16.10;78.00
3356;DHT22;1691;52.486;13.374;2022-09-24T16:57:04;16.10;78.30
3356;DHT22;1691;52.486;13.374;2022-09-24T16:59:32;16.00;78.70
3356;DHT22;1691;52.486;13.374;2022-09-24T17:02:00;15.90;78.90
3356;DHT22;1691;52.486;13.374;2022-09-24T17:04:27;15.90;79.10
3356;DHT22;1691;52.486;13.374;2022-09-24T17:06:55;15.80;79.30
3356;DHT22;1691;52.486;13.374;2022-09-24T17:09:23;15.80;79.30
3356;DHT22;1691;52.486;13.374;2022-09-24T17:12:08;15.70;79.50
3356;DHT22;1691;52.486;13.374;2022-09-24T17:14:37;15.70;79.70
3356;DHT22;1691;52.486;13.374;2022-09-24T17:17:04;15.70;79.70
3356;DHT22;1691;52.486;13.374;2022-09-24T17:19:32;15.70;79.50
3356;DHT22;1691;52.486;13.374;2022-09-24T17:21:59;15.70;79.30
3356;DHT22;1691;52.486;13.374;2022-09-24T17:24:26;15.70;79.10
3356;DHT22;1691;52.486;13.374;2022-09-24T17:26:53;15.70;78.90
3356;DHT22;1691;52.486;13.374;2022-09-24T17:29:20;15.70;78.70
3356;DHT22;1691;52.486;13.374;2022-09-24T17:31:47;15.70;78.50
3356;DHT22;1691;52.486;13.374;2022-09-24T17:34:15;15.70;78.20
3356;DHT22;1691;52.486;13.374;2022-09-24T17:36:42;15.70;78.00
3356;DHT22;1691;52.486;13.374;2022-09-24T17:39:11;15.70;77.80
3356;DHT22;1691;52.486;13.374;2022-09-24T17:41:39;15.70;77.80
3356;DHT22;1691;52.486;13.374;2022-09-24T17:44:06;15.70;77.80
3356;DHT22;1691;52.486;13.374;2022-09-24T17:46:34;15.70;78.00
3356;DHT22;1691;52.486;13.374;2022-09-24T17:49:02;15.70;78.30
3356;DHT22;1691;52.486;13.374;2022-09-24T17:51:31;15.60;78.50
3356;DHT22;1691;52.486;13.374;2022-09-24T17:54:01;15.60;79.10
3356;DHT22;1691;52.486;13.374;2022-09-24T17:56:31;15.60;79.50
3356;DHT22;1691;52.486;13.374;2022-09-24T17:58:59;15.60;79.80
3356;DHT22;1691;52.486;13.374;2022-09-24T18:01:28;15.60;80.00
3356;DHT22;1691;52.486;13.374;2022-09-24T18:03:59;15.60;80.40
3356;DHT22;1691;52.486;13.374;2022-09-24T18:06:27;15.60;80.60
3356;DHT22;1691;52.486;13.374;2022-09-24T18:08:59;15.60;80.80
3356;DHT22;1691;52.486;13.374;2022-09-24T18:11:32;15.60;81.00
3356;DHT22;1691;52.486;13.374;2022-09-24T18:14:13;15.60;81.10
3356;DHT22;1691;52.486;13.374;2022-09-24T18:16:43;15.50;81.10
3356;DHT22;1691;52.486;13.374;2022-09-24T18:19:12;15.50;81.30
3356;DHT22;1691;52.486;13.374;2022-09-24T18:21:41;15.50;81.30
3356;DHT22;1691;52.486;13.374;2022-09-24T18:24:09;15.50;81.30
3356;DHT22;1691;52.486;13.374;2022-09-24T18:26:37;15.40;81.50
3356;DHT22;1691;52.486;13.374;2022-09-24T18:29:11;15.40;81.50
3356;DHT22;1691;52.486;13.374;2022-09-24T18:31:39;15.40;81.50